createdAt,value
2023-03-27T00:01:45.851Z,4.75
2023-03-27T00:04:47.769Z,4.87
2023-03-27T00:07:55.867Z,4.32
2023-03-27T00:10:58.145Z,4.90
2023-03-27T00:14:00.700Z,3.80
2023-03-27T00:17:03.969Z,3.67
2023-03-27T00:20:06.710Z,5.32
2023-03-27T00:23:09.054Z,4.70
2023-03-27T00:26:14.674Z,4.40
2023-03-27T00:29:16.935Z,3.17
2023-03-27T00:32:19.429Z,5.07
2023-03-27T00:35:22.803Z,4.80
2023-03-27T00:38:25.046Z,3.80
2023-03-27T00:41:28.060Z,3.50
2023-03-27T00:44:34.636Z,3.30
2023-03-27T00:47:38.760Z,4.38
2023-03-27T00:50:41.676Z,4.07
2023-03-27T00:53:44.740Z,3.40
2023-03-27T00:56:49.897Z,3.78
2023-03-27T00:59:52.853Z,2.97
2023-03-27T01:02:54.971Z,5.22
2023-03-27T01:05:57.197Z,2.92
2023-03-27T01:09:00.177Z,5.35
2023-03-27T01:12:15.479Z,4.57
2023-03-27T01:15:17.620Z,5.10
2023-03-27T01:18:19.786Z,4.25
2023-03-27T01:21:22.573Z,6.30
2023-03-27T01:24:38.176Z,4.68
2023-03-27T01:27:42.986Z,3.38
2023-03-27T01:30:52.574Z,3.97
2023-03-27T01:34:23.992Z,3.90
2023-03-27T01:37:50.438Z,4.65
2023-03-27T01:40:55.436Z,4.65
2023-03-27T01:44:05.129Z,5.50
2023-03-27T01:47:10.198Z,4.50
2023-03-27T01:50:18.523Z,5.60
2023-03-27T01:53:22.333Z,5.32
2023-03-27T01:56:32.853Z,4.47
2023-03-27T01:59:36.586Z,5.97
2023-03-27T02:02:39.167Z,7.25
2023-03-27T02:05:43.294Z,7.68
2023-03-27T02:08:50.371Z,6.30
2023-03-27T02:12:15.430Z,5.60
2023-03-27T02:15:22.902Z,7.25
2023-03-27T02:18:31.580Z,6.60
2023-03-27T02:21:33.858Z,9.10
2023-03-27T02:24:38.988Z,8.95
2023-03-27T02:27:42.243Z,7.68
2023-03-27T02:31:05.745Z,10.48
2023-03-27T02:34:18.486Z,11.02
2023-03-27T02:37:31.916Z,10.77
2023-03-27T02:41:07.293Z,11.00
2023-03-27T02:44:51.861Z,9.57
2023-03-27T02:48:04.791Z,6.72
2023-03-27T02:51:08.585Z,7.20
2023-03-27T02:54:14.888Z,7.90
2023-03-27T02:57:18.884Z,7.85
2023-03-27T03:00:41.989Z,6.97
2023-03-27T03:04:10.692Z,9.13
2023-03-27T03:07:34.772Z,8.55
2023-03-27T03:10:37.597Z,9.02
2023-03-27T03:13:46.387Z,6.37
2023-03-27T03:16:52.832Z,6.70
2023-03-27T03:19:58.402Z,7.78
2023-03-27T03:23:01.511Z,6.93
2023-03-27T03:26:03.847Z,6.85
2023-03-27T03:29:19.121Z,7.50
2023-03-27T03:32:36.166Z,7.82
2023-03-27T03:35:43.251Z,9.23
2023-03-27T03:38:58.505Z,9.32
2023-03-27T03:42:00.792Z,11.23
2023-03-27T03:45:03.045Z,10.93
2023-03-27T03:48:05.754Z,11.45
2023-03-27T03:51:07.887Z,10.02
2023-03-27T03:54:09.967Z,10.88
2023-03-27T03:57:12.318Z,12.23
2023-03-27T04:00:17.045Z,7.95
2023-03-27T04:03:19.617Z,8.18
2023-03-27T04:06:25.456Z,7.10
2023-03-27T04:09:33.339Z,6.85
2023-03-27T04:12:47.770Z,7.72
2023-03-27T04:15:55.518Z,5.10
2023-03-27T04:19:07.248Z,5.38
2023-03-27T04:22:13.409Z,7.13
2023-03-27T04:25:17.414Z,6.50
2023-03-27T04:28:21.445Z,5.37
2023-03-27T04:31:34.538Z,6.43
2023-03-27T04:35:06.262Z,7.57
2023-03-27T04:38:26.354Z,8.87
2023-03-27T04:41:33.158Z,8.57
2023-03-27T04:44:35.556Z,7.65
2023-03-27T04:47:37.976Z,7.78
2023-03-27T04:50:41.281Z,8.80
2023-03-27T04:53:45.892Z,8.27
2023-03-27T04:56:48.001Z,8.93
2023-03-27T04:59:51.022Z,7.63
2023-03-27T05:03:13.925Z,6.93
2023-03-27T05:06:46.484Z,5.75
2023-03-27T05:09:52.076Z,4.80
2023-03-27T05:12:57.149Z,5.35
2023-03-27T05:16:05.047Z,4.75
2023-03-27T05:19:15.475Z,4.93
2023-03-27T05:22:25.084Z,4.80
2023-03-27T05:25:36.628Z,6.75
2023-03-27T05:28:42.446Z,4.47
2023-03-27T05:31:44.785Z,3.60
2023-03-27T05:35:21.379Z,5.13
2023-03-27T05:38:29.934Z,6.60
2023-03-27T05:41:44.782Z,5.07
2023-03-27T05:44:53.598Z,4.20
2023-03-27T05:47:57.879Z,4.80
2023-03-27T05:51:01.062Z,4.70
2023-03-27T05:54:03.560Z,5.53
2023-03-27T05:57:29.588Z,5.43
2023-03-27T06:00:36.505Z,12.88
2023-03-27T06:04:32.820Z,14.03
2023-03-27T06:08:04.426Z,9.70
2023-03-27T06:11:11.344Z,6.50
2023-03-27T06:14:23.786Z,5.00
2023-03-27T06:17:46.696Z,3.50
2023-03-27T06:20:49.574Z,4.50
2023-03-27T06:23:53.113Z,6.57
2023-03-27T06:26:56.247Z,4.78
2023-03-27T06:29:59.822Z,3.38
2023-03-27T06:33:03.153Z,4.43
2023-03-27T06:36:05.987Z,6.17
2023-03-27T06:39:12.776Z,7.25
2023-03-27T06:42:22.676Z,4.05
2023-03-27T06:45:55.381Z,5.70
2023-03-27T06:49:16.535Z,7.03
2023-03-27T06:52:19.355Z,5.53
2023-03-27T06:55:21.970Z,6.00
2023-03-27T06:58:28.564Z,5.97
2023-03-27T07:01:31.483Z,5.68
2023-03-27T07:05:01.679Z,6.85
2023-03-27T07:08:22.427Z,4.97
2023-03-27T07:11:27.097Z,4.60
2023-03-27T07:14:31.444Z,4.32
2023-03-27T07:17:45.869Z,3.40
2023-03-27T07:20:50.516Z,5.05
2023-03-27T07:23:58.552Z,4.47
2023-03-27T07:27:09.514Z,4.47
2023-03-27T07:30:13.370Z,3.30
2023-03-27T07:33:16.676Z,5.07
2023-03-27T07:36:20.193Z,4.10
2023-03-27T07:39:31.801Z,3.60
2023-03-27T07:42:34.822Z,4.53
2023-03-27T07:45:40.338Z,3.70
2023-03-27T07:48:43.693Z,2.93
2023-03-27T07:51:51.659Z,3.20
2023-03-27T07:54:54.844Z,5.07
2023-03-27T07:58:02.725Z,7.15
2023-03-27T08:01:12.533Z,6.35
2023-03-27T08:04:15.810Z,4.95
2023-03-27T08:07:25.131Z,3.90
2023-03-27T08:10:30.958Z,4.87
2023-03-27T08:13:37.428Z,3.22
2023-03-27T08:16:42.002Z,4.97
2023-03-27T08:19:46.499Z,4.57
2023-03-27T08:22:55.278Z,4.57
2023-03-27T08:26:07.197Z,5.47
2023-03-27T08:29:17.111Z,6.72
2023-03-27T08:32:22.415Z,6.03
2023-03-27T08:35:29.204Z,7.30
2023-03-27T08:38:33.553Z,5.90
2023-03-27T08:41:49.620Z,8.07
2023-03-27T08:45:35.925Z,7.30
2023-03-27T08:48:53.990Z,6.78
2023-03-27T08:51:56.913Z,5.53
2023-03-27T08:59:45.131Z,7.00
2023-03-27T09:03:06.041Z,6.45
2023-03-27T09:06:16.677Z,6.88
2023-03-27T09:09:53.279Z,7.13
2023-03-27T09:13:04.525Z,7.40
2023-03-27T09:16:20.077Z,6.80
2023-03-27T09:19:33.961Z,7.97
2023-03-27T09:22:48.471Z,10.57
2023-03-27T09:26:06.950Z,8.77
2023-03-27T09:29:36.231Z,12.05
2023-03-27T09:33:05.895Z,9.27
2023-03-27T09:36:08.917Z,10.27
2023-03-27T09:39:13.229Z,5.63
2023-03-27T09:42:26.190Z,5.20
2023-03-27T09:45:28.374Z,5.53
2023-03-27T09:48:34.948Z,5.47
2023-03-27T09:51:43.923Z,7.13
2023-03-27T09:55:03.239Z,5.85
2023-03-27T09:58:33.098Z,4.03
2023-03-27T10:01:36.133Z,5.30
2023-03-27T10:05:03.635Z,5.38
2023-03-27T10:08:30.273Z,6.05
2023-03-27T10:12:08.208Z,3.88
2023-03-27T10:15:31.654Z,3.35
2023-03-27T10:18:34.494Z,4.57
2023-03-27T10:21:56.932Z,4.33
2023-03-27T10:25:01.883Z,4.22
2023-03-27T10:28:28.013Z,10.02
2023-03-27T10:31:49.561Z,4.70
2023-03-27T10:35:05.518Z,3.38
2023-03-27T10:38:38.090Z,3.03
2023-03-27T10:41:58.002Z,2.67
2023-03-27T10:45:00.315Z,3.78
2023-03-27T10:48:04.919Z,9.93
2023-03-27T10:51:33.125Z,10.90
2023-03-27T10:55:06.850Z,6.20
2023-03-27T10:58:44.765Z,7.32
2023-03-27T11:01:49.101Z,4.97
2023-03-27T11:04:51.691Z,2.77
2023-03-27T11:08:06.631Z,4.43
2023-03-27T11:11:13.513Z,2.72
2023-03-27T11:14:25.790Z,4.40
2023-03-27T11:17:53.453Z,3.53
2023-03-27T11:21:12.980Z,2.72
2023-03-27T11:24:35.066Z,3.35
2023-03-27T11:27:44.386Z,4.30
2023-03-27T11:30:46.930Z,3.88
2023-03-27T11:34:08.215Z,6.22
2023-03-27T11:37:14.670Z,2.43
2023-03-27T11:40:42.811Z,4.93
2023-03-27T11:43:45.109Z,4.40
2023-03-27T11:47:19.093Z,3.63
2023-03-27T11:50:29.252Z,2.85
2023-03-27T11:53:42.158Z,3.20
2023-03-27T11:56:54.702Z,2.92
2023-03-27T12:00:26.490Z,3.00
2023-03-27T12:03:55.780Z,3.65
2023-03-27T12:07:13.296Z,3.85
2023-03-27T12:10:17.990Z,2.77
2023-03-27T12:14:00.524Z,3.85
2023-03-27T12:17:24.869Z,3.25
2023-03-27T12:20:48.734Z,2.90
2023-03-27T12:24:14.149Z,4.20
2023-03-27T12:27:48.460Z,3.55
2023-03-27T12:31:07.040Z,2.75
2023-03-27T12:34:18.890Z,3.10
2023-03-27T12:37:24.885Z,2.85
2023-03-27T12:40:29.098Z,3.60
2023-03-27T12:43:39.969Z,2.00
2023-03-27T12:47:14.525Z,2.90
2023-03-27T12:50:20.960Z,3.60
2023-03-27T12:53:29.300Z,3.57
2023-03-27T12:56:42.731Z,4.22
2023-03-27T12:59:48.717Z,4.13
2023-03-27T13:03:02.939Z,3.07
2023-03-27T13:06:14.301Z,5.05
2023-03-27T13:09:29.134Z,6.20
2023-03-27T13:12:42.509Z,8.00
2023-03-27T13:15:52.582Z,8.82
2023-03-27T13:19:03.336Z,7.32
2023-03-27T13:22:37.290Z,7.93
2023-03-27T13:26:08.785Z,6.70
2023-03-27T13:29:42.837Z,6.05
2023-03-27T13:33:08.310Z,5.72
2023-03-27T13:36:14.677Z,5.60
2023-03-27T13:39:24.722Z,5.75
2023-03-27T13:42:38.114Z,4.05
2023-03-27T13:45:53.143Z,2.88
2023-03-27T13:49:32.378Z,4.00
2023-03-27T13:53:05.261Z,2.15
2023-03-27T13:56:59.931Z,2.92
2023-03-27T14:00:47.490Z,2.13
2023-03-27T14:04:03.029Z,3.25
2023-03-27T14:07:16.055Z,3.50
2023-03-27T14:10:36.504Z,3.17
2023-03-27T14:13:52.002Z,2.85
2023-03-27T14:17:11.433Z,1.90
2023-03-27T14:20:27.415Z,3.38
2023-03-27T14:23:47.665Z,2.33
2023-03-27T14:26:59.622Z,3.22
2023-03-27T14:30:10.043Z,3.17
2023-03-27T14:33:18.666Z,5.60
2023-03-27T14:36:26.745Z,4.85
2023-03-27T14:39:37.370Z,5.90
2023-03-27T14:42:48.270Z,5.77
2023-03-27T14:45:51.847Z,8.40
2023-03-27T14:48:54.690Z,5.78
2023-03-27T14:51:59.841Z,4.63
2023-03-27T14:55:23.014Z,4.22
2023-03-27T14:58:36.829Z,6.10
2023-03-27T15:01:40.437Z,4.90
2023-03-27T15:04:43.906Z,4.80
2023-03-27T15:07:50.583Z,4.70
2023-03-27T15:11:16.074Z,5.65
2023-03-27T15:14:32.974Z,6.13
2023-03-27T15:17:38.771Z,6.20
2023-03-27T15:20:41.534Z,6.85
2023-03-27T15:23:45.306Z,4.80
2023-03-27T15:26:48.524Z,4.93
2023-03-27T15:29:52.154Z,3.95
2023-03-27T15:32:55.757Z,5.43
2023-03-27T15:35:58.483Z,6.03
2023-03-27T15:39:00.897Z,6.90
2023-03-27T15:42:04.116Z,6.22
2023-03-27T15:45:07.432Z,4.83
2023-03-27T15:48:17.918Z,3.53
2023-03-27T15:51:20.127Z,4.45
2023-03-27T15:54:29.433Z,8.70
2023-03-27T15:57:31.816Z,6.45
2023-03-27T16:00:34.803Z,6.53
2023-03-27T16:03:38.474Z,5.60
2023-03-27T16:06:42.165Z,4.67
2023-03-27T16:09:50.842Z,5.30
2023-03-27T16:12:56.682Z,5.63
2023-03-27T16:16:00.848Z,5.40
2023-03-27T16:19:03.905Z,5.28
2023-03-27T16:22:05.971Z,3.88
2023-03-27T16:25:08.941Z,6.65
2023-03-27T16:28:13.480Z,4.03
2023-03-27T16:31:16.548Z,5.65
2023-03-27T16:34:22.534Z,4.70
2023-03-27T16:37:26.573Z,3.60
2023-03-27T16:40:28.696Z,3.42
2023-03-27T16:43:31.054Z,3.63
2023-03-27T16:46:33.918Z,3.40
2023-03-27T16:49:35.932Z,4.97
2023-03-27T16:52:38.083Z,4.10
2023-03-27T16:55:40.894Z,3.25
2023-03-27T16:58:43.081Z,3.03
2023-03-27T17:01:45.750Z,3.20
2023-03-27T17:04:48.335Z,5.93
2023-03-27T17:07:50.597Z,3.17
2023-03-27T17:10:53.181Z,3.20
2023-03-27T17:13:55.366Z,3.17
2023-03-27T17:16:57.475Z,4.77
2023-03-27T17:20:00.642Z,4.68
2023-03-27T17:23:02.878Z,4.75
2023-03-27T17:26:05.431Z,4.22
2023-03-27T17:29:08.571Z,4.82
2023-03-27T17:32:11.173Z,2.92
2023-03-27T17:35:13.207Z,4.75
2023-03-27T17:38:19.066Z,4.07
2023-03-27T17:41:21.171Z,3.20
2023-03-27T17:44:23.548Z,2.75
2023-03-27T17:47:25.843Z,3.90
2023-03-27T17:50:28.333Z,3.50
2023-03-27T17:53:30.833Z,3.88
2023-03-27T17:56:32.968Z,4.50
2023-03-27T17:59:36.670Z,5.22
2023-03-27T18:02:39.006Z,5.45
2023-03-27T18:05:41.272Z,4.63
2023-03-27T18:08:43.378Z,6.53
2023-03-27T18:11:55.750Z,5.53
2023-03-27T18:14:58.094Z,4.10
2023-03-27T18:18:00.573Z,3.57
2023-03-27T18:21:02.649Z,4.32
2023-03-27T18:24:05.654Z,8.68
2023-03-27T18:27:07.996Z,10.98
2023-03-27T18:30:12.456Z,13.38
2023-03-27T18:33:14.746Z,7.75
2023-03-27T18:36:17.042Z,3.20
2023-03-27T18:39:19.157Z,3.10
2023-03-27T18:42:21.293Z,5.45
2023-03-27T18:45:24.566Z,7.35
2023-03-27T18:48:27.109Z,4.47
2023-03-27T18:51:29.492Z,6.65
2023-03-27T18:54:31.733Z,3.88
2023-03-27T18:57:34.402Z,5.18
2023-03-27T19:00:36.560Z,4.38
2023-03-27T19:03:39.633Z,6.55
2023-03-27T19:06:41.683Z,9.10
2023-03-27T19:09:43.642Z,8.07
2023-03-27T19:12:46.060Z,5.07
2023-03-27T19:16:15.341Z,3.50
2023-03-27T19:19:46.368Z,4.00
2023-03-27T19:22:55.755Z,3.10
2023-03-27T19:26:19.719Z,2.85
2023-03-27T19:29:21.880Z,3.75
2023-03-27T19:32:25.874Z,3.45
2023-03-27T19:35:28.131Z,3.70
2023-03-27T19:38:30.549Z,3.80
2023-03-27T19:41:33.080Z,3.10
2023-03-27T19:44:35.472Z,4.38
2023-03-27T19:47:37.574Z,3.22
2023-03-27T19:50:53.659Z,5.77
2023-03-27T19:54:08.251Z,3.67
2023-03-27T19:57:10.925Z,3.72
2023-03-27T20:00:13.669Z,4.28
2023-03-27T20:03:16.739Z,2.53
2023-03-27T20:06:20.603Z,3.97
2023-03-27T20:09:22.954Z,5.45
2023-03-27T20:12:25.163Z,3.33
2023-03-27T20:15:27.229Z,3.28
2023-03-27T20:18:32.930Z,4.07
2023-03-27T20:21:43.515Z,3.50
2023-03-27T20:24:48.625Z,3.45
2023-03-27T20:27:50.957Z,4.43
2023-03-27T20:30:53.104Z,3.40
2023-03-27T20:33:55.283Z,2.78
2023-03-27T20:36:59.171Z,2.83
2023-03-27T20:40:16.654Z,4.03
2023-03-27T20:43:19.609Z,2.17
2023-03-27T20:46:21.784Z,3.20
2023-03-27T20:52:29.712Z,2.70
2023-03-27T20:55:34.782Z,2.55
2023-03-27T20:58:41.704Z,2.92
2023-03-27T21:01:44.210Z,2.45
2023-03-27T21:04:47.445Z,4.05
2023-03-27T21:07:52.670Z,2.35
2023-03-27T21:10:54.715Z,3.83
2023-03-27T21:13:56.719Z,2.57
2023-03-27T21:16:58.894Z,2.20
2023-03-27T21:20:01.576Z,3.20
2023-03-27T21:23:04.086Z,3.73
2023-03-27T21:26:06.370Z,2.28
2023-03-27T21:29:11.519Z,2.78
2023-03-27T21:32:13.540Z,2.40
2023-03-27T21:35:15.845Z,2.00
2023-03-27T21:38:18.091Z,3.10
2023-03-27T21:41:20.601Z,2.20
2023-03-27T21:44:22.728Z,2.43
2023-03-27T21:47:31.707Z,2.50
2023-03-27T21:50:39.895Z,3.42
2023-03-27T21:53:41.862Z,2.20
2023-03-27T21:56:44.049Z,3.17
2023-03-27T21:59:46.022Z,2.90
2023-03-27T22:02:48.495Z,3.10
2023-03-27T22:06:01.003Z,5.65
2023-03-27T22:09:12.692Z,5.35
2023-03-27T22:12:14.612Z,5.22
2023-03-27T22:15:16.807Z,7.03
2023-03-27T22:18:19.162Z,5.45
2023-03-27T22:21:25.580Z,3.00
2023-03-27T22:24:27.885Z,2.70
2023-03-27T22:27:29.938Z,3.13
2023-03-27T22:30:32.445Z,2.97
2023-03-27T22:33:35.117Z,3.13
2023-03-27T22:36:37.498Z,3.47
2023-03-27T22:39:39.887Z,3.47
2023-03-27T22:42:41.870Z,2.00
2023-03-27T22:45:44.232Z,3.47
2023-03-27T22:48:47.344Z,2.50
2023-03-27T22:51:49.447Z,4.25
2023-03-27T22:54:51.799Z,3.50
2023-03-27T22:57:54.117Z,3.25
2023-03-27T23:00:56.193Z,4.28
2023-03-27T23:03:58.292Z,2.70
2023-03-27T23:07:01.221Z,3.65
2023-03-27T23:10:03.769Z,4.65
2023-03-27T23:13:06.146Z,4.07
2023-03-27T23:16:08.902Z,3.03
2023-03-27T23:19:11.510Z,3.90
2023-03-27T23:22:13.559Z,1.83
2023-03-27T23:25:15.689Z,2.03
2023-03-27T23:28:18.150Z,3.35
2023-03-27T23:31:20.324Z,2.33
2023-03-27T23:34:22.724Z,4.28
2023-03-27T23:37:27.728Z,3.15
2023-03-27T23:40:30.622Z,3.33
2023-03-27T23:43:33.562Z,2.72
2023-03-27T23:46:35.595Z,2.47
2023-03-27T23:49:38.126Z,2.25
2023-03-27T23:52:40.365Z,2.30
2023-03-27T23:55:42.469Z,2.10
2023-03-27T23:58:44.512Z,2.13
